Newry, Pennsylvania
Current Conditions -  °F | °C
As of 7:53 AM on Friday 28 Nov 2014 (Local Time) from KAOO Reporting Station
Broken Clouds Broken Clouds  
Wind Chill: 14°   Ceiling: 3000
Heat Index: 25°   Visibility: 10mi
Dew Point: 17°   Wind: 13mph
Humidity: 72%   Direction: 310°NW
Pressure: 30.23"   Gusts: NA
Location:  40.39°N, 78.44°W
Report Text: KAOO 281253Z AUTO 31011KT 10SM BKN030 M04/M08 A3023 RMK AO2 SLP255 T10391083
Loading
Personal Weather Stations






























Interactive Weather Map New forecast layout! Learn more

10-Day Weather Forecast

Advertisements
Track Severe Weather on mobile